CheckWX is a tool to help pilots better visualize weather data.  It is not intended as a substitute for an official pre-flight weather briefing.

23:46:36 UTC

KCXW METAR
Cantrell Field Airport
Conway, Arkansas, USA
Current

12 mins ago

KCXW 222335Z AUTO 26005KT 10SM CLR 16/03 A3008 RMK A01
Observed
Oct-22 @ 23:35 UTC
Wind
  • 260° at 5 KTS
Visibility
10 SM
Flight Rules
VFR
Cloud Levels
  • Clear skies
Temperature
16°C / 61°F
Dewpoint
C / 37°F
Humidity
42%
Altimeter
30.08" Hg
Pressure
1018.62 hPa
Previous

32 mins ago

KCXW 222315Z AUTO 26006KT 10SM CLR 17/02 A3008 RMK A01
Observed
Oct-22 @ 23:15 UTC
Wind
  • 260° at 6 KTS
Visibility
10 SM
Flight Rules
VFR
Cloud Levels
  • Clear skies
Temperature
17°C / 63°F
Dewpoint
C / 36°F
Humidity
37%
Altimeter
30.08" Hg
Pressure
1018.62 hPa
Previous

52 mins ago

KCXW 222255Z AUTO 26009G14KT 10SM CLR 19/01 A3008 RMK A01
Observed
Oct-22 @ 22:55 UTC
Wind
  • 260° at 9 KTS
  • Gusting to 14 KTS
Visibility
10 SM
Flight Rules
VFR
Cloud Levels
  • Clear skies
Temperature
19°C / 66°F
Dewpoint
C / 34°F
Humidity
30%
Altimeter
30.08" Hg
Pressure
1018.62 hPa